• Join FlightAware (Why Join?)
  • Login
  • US Flag 
Gobble Gobble! 
07:43PM EST


 

Airport Tracker/Info


-or-


 

Live Flight TrackerFlight Track Log ✈ TAM3020 ✈ 19-May-2013 ✈ SBCT / CWB - SBSP / CGH

Flight Track Log - Related Links

Times and Time Zones

All times are in EDT time to prevent confusion due to time zone crossing. See the TAM3020 flight status page for this flight to view local times or setup timezone preferences in your user account.

Time Position Orientation Groundspeed Altitude Reporting Facility
EDT Latitude Longitude Course Direction KTS MPH feet Rate Location/Type
07:41PM -25.5690 -48.9950 84° East 258 297 8,400  Level FlightAware
07:42PM -25.5650 -48.9350 86° East 316 364 10,700 2,400 Climbing FlightAware
07:43PM -25.5570 -48.8350 85° East 376 433 11,600 1,920 Climbing FlightAware
07:44PM -25.5500 -48.7380 85° East 392 451 13,500 2,520 Climbing FlightAware
07:44PM -25.5430 -48.6580 84° East 399 459 15,200 2,580 Climbing FlightAware
07:45PM -25.5370 -48.5720 86° East 402 463 17,200 2,280 Climbing FlightAware
07:46PM -25.5230 -48.4870 80° East 412 474 18,500 1,920 Climbing FlightAware
07:46PM -25.5010 -48.4010 74° East 423 487 19,800 1,740 Climbing FlightAware
07:47PM -25.4770 -48.3050 75° East 437 503 21,000 1,440 Climbing FlightAware
07:48PM -25.4550 -48.2180 74° East 456 525 21,900 1,440 Climbing FlightAware
07:48PM -25.4290 -48.1140 75° East 464 534 23,100 1,620 Climbing FlightAware
07:49PM -25.4060 -48.0230 74° East 472 543 24,200 1,500 Climbing FlightAware
07:50PM -25.3820 -47.9290 74° East 481 554 25,100 2,040 Climbing FlightAware
07:51PM -25.3580 -47.8320 75° East 463 533 27,100 2,580 Climbing FlightAware
07:51PM -25.3350 -47.7440 74° East 449 517 28,800 1,320 Climbing FlightAware
07:52PM -25.3100 -47.6440 75° East 455 524 29,000 120 Climbing FlightAware
07:53PM -25.2860 -47.5520 74° East 454 522 29,000  Level FlightAware
07:53PM -25.2640 -47.4640 75° East 458 527 29,000  Level FlightAware
07:54PM -25.2390 -47.3670 74° East 460 529 29,000  Level FlightAware
07:55PM -25.2060 -47.2760 68° East 453 521 29,000  Level FlightAware
07:55PM -25.1350 -47.2160 37° Northeast 428 493 29,000  Level FlightAware
07:56PM -25.0560 -47.1850 20° North 428 493 29,000 -540 Level FlightAware
07:57PM -24.9740 -47.1520 20° North 435 501 28,300 -1,320 Descending FlightAware
07:58PM -24.9030 -47.1240 20° North 423 487 27,200 -1,980 Descending FlightAware
07:58PM -24.8240 -47.0930 20° North 422 486 25,700 -2,100 Descending FlightAware
07:59PM -24.7500 -47.0650 19° North 419 482 24,400 -1,920 Descending FlightAware
08:00PM -24.6720 -47.0340 20° North 417 480 23,000 -1,980 Descending FlightAware
08:00PM -24.5880 -47.0010 20° North 412 474 21,500 -2,040 Descending FlightAware
08:01PM -24.5340 -46.9800 19° North 408 470 20,500 -1,740 Descending FlightAware
08:02PM -24.4540 -46.9320 29° Northeast 400 460 19,200 -1,620 Descending FlightAware
08:02PM -24.3830 -46.8810 33° Northeast 383 441 18,000 -1,620 Descending FlightAware
08:03PM -24.3320 -46.8440 33° Northeast 371 427 17,100 -1,440 Descending FlightAware
08:04PM -24.2730 -46.8020 33° Northeast 359 413 16,200 -1,020 Descending FlightAware
08:05PM -24.2080 -46.7560 33° Northeast 333 383 15,600 -1,020 Descending FlightAware
08:05PM -24.1570 -46.7190 34° Northeast 327 376 14,700 -1,380 Descending FlightAware
08:06PM -24.1030 -46.6800 33° Northeast 325 374 13,700 -1,440 Descending FlightAware
08:07PM -24.0490 -46.6420 33° Northeast 325 374 12,700 -1,320 Descending FlightAware
08:07PM -23.9990 -46.6060 33° Northeast 321 369 11,900 -1,200 Descending FlightAware
08:08PM -23.9490 -46.5710 33° Northeast 311 358 11,000 -1,320 Descending FlightAware
08:09PM -23.8980 -46.5430 27° Northeast 297 342 10,200 -1,140 Descending FlightAware
08:09PM -23.8580 -46.5610 338° Northwest 270 311 9,700 -960 Descending FlightAware
08:09PM -23.8440 -46.5760 316° Northwest 269 310 9,500 -600 Descending FlightAware
08:10PM -23.8230 -46.5960 319° Northwest 266 306 9,300 -600 Descending FlightAware
08:10PM -23.7930 -46.6260 318° Northwest 260 299 9,000 -600 Descending FlightAware
08:11PM -23.7700 -46.6470 320° Northwest 263 303 8,800 -660 Descending FlightAware
08:11PM -23.7400 -46.6780 317° Northwest 259 298 8,400 -720 Descending FlightAware
08:12PM -23.7130 -46.7030 320° Northwest 253 291 8,100 -840 Descending FlightAware
08:12PM -23.7020 -46.7140 318° Northwest 252 290 7,800 -900 Descending FlightAware
08:12PM -23.6790 -46.7360 319° Northwest 244 281 7,500 -780 Descending FlightAware
08:13PM -23.6670 -46.7480 318° Northwest 237 273 7,300 -780 Descending FlightAware
08:13PM -23.6470 -46.7690 316° Northwest 228 262 7,000 -1,020 Descending FlightAware
08:14PM -23.6240 -46.7920 318° Northwest 223 257 6,400 -1,200 Descending FlightAware
08:14PM -23.6020 -46.8130 319° Northwest 225 259 5,800 -1,200 Descending FlightAware
08:15PM -23.5800 -46.8330 320° Northwest 226 260 5,300 -1,080 Descending FlightAware
08:15PM -23.5680 -46.8360 347° North 229 264 5,100 -540 Descending FlightAware
08:15PM -23.5410 -46.8170 33° Northeast 219 252 4,900 -240 Descending FlightAware
08:16PM -23.5290 -46.7940 60° Northeast 217 250 4,900  Level FlightAware
08:16PM -23.5140 -46.7650 61° Northeast 208 239 4,900 -300 Level FlightAware
08:17PM -23.5170 -46.7330 96° East 174 200 4,600 -600 Descending FlightAware
08:17PM -23.5270 -46.7260 147° Southeast 158 182 4,400 -840 Descending FlightAware
08:17PM -23.5350 -46.7200 145° Southeast 156 180 4,200 -780 Descending FlightAware
08:18PM -23.5520 -46.7080 147° Southeast 153 176 3,900 -780 Descending FlightAware
08:18PM -23.5690 -46.6970 149° Southeast 135 155 3,500 -720 Descending FlightAware
08:19PM -23.5850 -46.6850 145° Southeast 134 154 3,200 -660 Descending FlightAware
08:19PM -23.5980 -46.6760 148° Southeast 134 154 2,900 -600 Descending FlightAware
08:19PM -23.6040 -46.6720 149° Southeast 134 154 2,800 -600 Descending FlightAware
08:20PM -23.6170 -46.6630 148° Southeast 134 154 2,500 -480 Descending FlightAware
08:21PM -23.6330 -46.6520 148° Southeast 134 154 2,300 -300 Descending FlightAware
08:23PM -23.6267 -46.6554 334° Northwest  Level Estimated